Decoded Metar for LFBH (LA ROCHELLE/LALE in FRANCE) (IATA:N/A) | Meteo·Mobile Aviation Weather
aviador You're here:

LFBH Decoded Metar

LA ROCHELLE/LALE in FRANCE
Report Time2018-09-19 21:00:00
UTC Time2018-09-19 21:20:33
Flight Rules vfr VFR
Wind280° at 03 kt
W.Decomp.*RWY 27: 2.9 kt HW 0.6 kt RCW
W.Rank280° ranks 13
Current wind is below 280° avg. (10.2)
Visibility9999 m
Phenomena:N/A
Clouds:N/A
Expected CloudBase > 800 ft AGL from Temp-Dew spread
CeilingNone
Temp19°C (ISA +4)
Dew Point17°C (88% RH)
QNH1022 hPa
Density Alt463 ft
Elevation33 ft
Report Wrong Elevation
Raw Report
LFBH 192100Z AUTO 28003KT CAVOK 19/17 Q1022 NOSIG=

Extra information for LFBH:More info

Metar Taf Metar & Taf Last 4 Metars F.Rules Stats Wind Profile Meteogram Temp Stats Airport Information Weather charts Add Link Nearby VenuesMetar ALERT Operation Metar Decoded Social comments